Terminal Aerodrome Forecast
Issued by NWS

Home | Current Version | Previous Version | Text Only | Print | Product List | Glossary Off
Versions: 1 2 3 4 5 6 7 8 9 10 11 12 13 14 15 16 17 18 19 20 21

623
FTUS41 KCLE 241136
TAFFDY
TAF
KFDY 241136Z 2412/2512 10006KT P6SM BKN070
     FM241500 12008KT P6SM -SHRA OVC035
     FM241800 11010KT 6SM -SHRA OVC025
     FM242100 09010KT 4SM -SHRA OVC015
     FM250230 07012KT 3SM -SHRA OVC008=

USA.gov is the U.S. government's official web portal to all federal, state and local government web resources and services.